Time;durP1;ratioP1;P1;durP2;ratioP2;P2;SDS_P1;SDS_P2;PMS_P1;PMS_P2;Temp;Humidity;BMP_temperature;BMP_pressure;BME280_temperature;BME280_humidity;BME280_pressure;Samples;Min_cycle;Max_cycle;Signal;HPM_P1;HPM_P2
2022/12/08 00:02:07;;;;;;;10.25;5.30;;;4.90;99.90;;;;;;5072993;28;20465;-69
2022/12/08 00:09:20;;;;;;;9.30;5.80;;;4.90;99.90;;;;;;5078754;28;20285;-69
2022/12/08 00:10:02;;;;;;;12.55;6.63;;;4.80;99.90;;;;;;5078420;28;20566;-69
2022/12/08 00:12:28;;;;;;;10.00;6.65;;;4.80;99.90;;;;;;5079048;28;20515;-69
2022/12/08 00:14:54;;;;;;;10.25;6.95;;;4.80;99.90;;;;;;5074548;28;20226;-69
2022/12/08 00:17:19;;;;;;;11.00;7.47;;;4.80;99.90;;;;;;5064464;28;20055;-69
2022/12/08 00:19:45;;;;;;;10.20;7.53;;;4.80;99.90;;;;;;5069971;28;20081;-69
2022/12/08 00:22:12;;;;;;;11.25;7.78;;;4.80;99.90;;;;;;5072420;28;20017;-69
2022/12/08 00:24:40;;;;;;;9.40;7.05;;;4.80;99.90;;;;;;5067031;28;20033;-69
2022/12/08 00:27:11;;;;;;;10.65;7.55;;;4.80;99.90;;;;;;5065821;28;20035;-69
2022/12/08 00:29:37;;;;;;;9.52;7.22;;;4.80;99.90;;;;;;5065892;28;20551;-70
2022/12/08 00:32:03;;;;;;;12.88;7.82;;;4.70;99.90;;;;;;5065309;28;20020;-69
2022/12/08 00:34:30;;;;;;;14.02;8.10;;;4.70;99.90;;;;;;5072196;28;20370;-70
2022/12/08 00:36:56;;;;;;;15.00;7.60;;;4.70;99.90;;;;;;5063263;28;20033;-70
2022/12/08 00:39:21;;;;;;;11.80;7.22;;;4.70;99.90;;;;;;5059047;28;20417;-69
2022/12/08 00:44:31;;;;;;;11.93;7.05;;;4.70;99.90;;;;;;5058573;28;20041;-70
2022/12/08 00:46:56;;;;;;;10.68;7.55;;;4.70;99.90;;;;;;5064439;28;20398;-69
2022/12/08 00:49:22;;;;;;;16.80;6.68;;;4.70;99.90;;;;;;5073082;28;20139;-69
2022/12/08 00:51:48;;;;;;;10.65;6.75;;;4.70;99.90;;;;;;5071504;28;20033;-69
2022/12/08 00:54:14;;;;;;;13.85;6.22;;;4.70;99.90;;;;;;5063287;28;20059;-69
2022/12/08 00:56:39;;;;;;;9.65;6.30;;;4.70;99.90;;;;;;5064383;28;20028;-70
2022/12/08 00:59:06;;;;;;;9.88;5.20;;;4.70;99.90;;;;;;5074533;28;20032;-69
2022/12/08 01:01:33;;;;;;;11.55;5.47;;;4.70;99.90;;;;;;5064768;28;20439;-70
2022/12/08 01:04:05;;;;;;;10.30;5.53;;;4.70;99.90;;;;;;5066185;28;20092;-70
2022/12/08 01:06:33;;;;;;;10.20;5.97;;;4.80;99.90;;;;;;5076260;28;20028;-70
2022/12/08 01:08:59;;;;;;;14.27;5.38;;;4.70;99.90;;;;;;5080605;28;20545;-71
2022/12/08 01:11:25;;;;;;;13.18;5.38;;;4.70;99.90;;;;;;5068757;28;20033;-70
2022/12/08 01:13:51;;;;;;;9.48;5.22;;;4.70;99.90;;;;;;5067325;28;20029;-70
2022/12/08 01:16:28;;;;;;;20.45;6.68;;;4.70;99.90;;;;;;5074274;28;20036;-70
2022/12/08 01:18:55;;;;;;;9.60;7.20;;;4.80;99.90;;;;;;5075093;28;20037;-70
2022/12/08 01:21:21;;;;;;;20.48;7.53;;;4.80;99.90;;;;;;5075117;28;20024;-70
2022/12/08 01:23:47;;;;;;;16.17;7.43;;;4.80;99.90;;;;;;5063304;28;20028;-70
2022/12/08 01:26:14;;;;;;;13.73;7.60;;;4.80;99.90;;;;;;5074336;28;20087;-71
2022/12/08 01:28:41;;;;;;;9.73;6.68;;;4.80;99.90;;;;;;5066352;28;20039;-71
2022/12/08 01:31:16;;;;;;;13.10;7.75;;;4.80;99.90;;;;;;5075514;28;20412;-69
2022/12/08 01:33:42;;;;;;;11.98;7.00;;;4.80;99.90;;;;;;5071290;28;20115;-70
2022/12/08 01:36:16;;;;;;;14.20;7.75;;;4.80;99.90;;;;;;5071560;28;20489;-69
2022/12/08 01:38:41;;;;;;;11.70;7.75;;;4.90;99.90;;;;;;5073366;28;20445;-69
2022/12/08 01:41:08;;;;;;;11.88;7.32;;;4.90;99.90;;;;;;5073619;28;20096;-69
2022/12/08 01:43:57;;;;;;;11.07;7.03;;;4.90;99.90;;;;;;5073693;28;20070;-68
2022/12/08 01:46:24;;;;;;;11.52;6.60;;;4.90;99.90;;;;;;5060962;28;20171;-69
2022/12/08 01:48:53;;;;;;;13.90;7.70;;;4.90;99.90;;;;;;5062590;28;20052;-69
2022/12/08 01:51:19;;;;;;;10.43;6.47;;;4.90;99.90;;;;;;5075745;28;20021;-69
2022/12/08 01:53:46;;;;;;;11.27;5.07;;;4.90;99.90;;;;;;5062230;28;20084;-69
2022/12/08 01:56:18;;;;;;;12.13;4.82;;;4.90;99.90;;;;;;5061318;28;20623;-69
2022/12/08 01:58:47;;;;;;;10.63;4.22;;;4.90;99.90;;;;;;5074682;28;20021;-68
2022/12/08 02:01:13;;;;;;;7.25;4.20;;;4.90;99.90;;;;;;5074743;28;20032;-69
2022/12/08 02:03:57;;;;;;;8.85;4.22;;;4.90;99.90;;;;;;5079050;28;20032;-70
2022/12/08 02:06:23;;;;;;;7.15;4.30;;;4.90;99.90;;;;;;5073010;28;20028;-70
2022/12/08 02:08:50;;;;;;;8.75;4.28;;;4.90;99.90;;;;;;5074125;28;20025;-70
2022/12/08 02:11:15;;;;;;;9.18;4.53;;;4.90;99.90;;;;;;5070706;28;20024;-69
2022/12/08 02:13:43;;;;;;;10.57;4.28;;;4.90;99.90;;;;;;5069468;28;20037;-69
2022/12/08 02:16:57;;;;;;;10.23;4.43;;;4.90;99.90;;;;;;5066853;28;20025;-69
2022/12/08 02:19:42;;;;;;;8.07;3.17;;;4.90;99.90;;;;;;5045203;28;20053;-70
2022/12/08 02:22:07;;;;;;;7.28;3.47;;;4.90;99.90;;;;;;5070150;28;20025;-70
2022/12/08 02:24:44;;;;;;;6.97;2.17;;;4.90;99.90;;;;;;5058081;28;20033;-69
2022/12/08 02:27:28;;;;;;;10.00;1.90;;;4.90;99.90;;;;;;5066032;28;20032;-69
2022/12/08 02:30:05;;;;;;;5.10;1.10;;;5.00;99.90;;;;;;5067955;28;20044;-70
2022/12/08 02:33:03;;;;;;;5.03;0.82;;;5.00;99.90;;;;;;5064820;28;20037;-70
2022/12/08 02:35:31;;;;;;;3.50;0.82;;;5.00;99.90;;;;;;5028465;28;20041;-69
2022/12/08 02:38:21;;;;;;;6.65;0.80;;;5.00;99.90;;;;;;5038346;28;20036;-69
2022/12/08 02:41:05;;;;;;;3.63;0.50;;;5.00;99.90;;;;;;5033326;28;20059;-70
2022/12/08 02:43:42;;;;;;;5.90;0.75;;;5.00;99.90;;;;;;5027446;28;20118;-70
2022/12/08 02:46:12;;;;;;;5.35;0.50;;;5.00;99.90;;;;;;5032461;28;20109;-69
2022/12/08 02:48:38;;;;;;;4.00;0.88;;;5.00;99.90;;;;;;5045439;28;20049;-70
2022/12/08 02:51:05;;;;;;;4.47;0.77;;;5.00;99.90;;;;;;5031781;28;20029;-70
2022/12/08 02:53:33;;;;;;;3.53;0.80;;;5.10;99.90;;;;;;5030813;28;20140;-70
2022/12/08 02:56:11;;;;;;;4.65;0.70;;;5.00;99.90;;;;;;5027662;28;20504;-70
2022/12/08 02:58:59;;;;;;;3.72;0.80;;;5.10;99.90;;;;;;5027709;28;20037;-70
2022/12/08 03:01:36;;;;;;;3.30;0.60;;;5.00;99.90;;;;;;5028070;28;20041;-71
2022/12/08 03:04:13;;;;;;;6.88;0.80;;;5.00;99.90;;;;;;5017645;28;20034;-70
2022/12/08 03:06:56;;;;;;;4.88;0.73;;;5.00;99.90;;;;;;5014514;28;20081;-70
2022/12/08 03:09:53;;;;;;;3.75;0.73;;;5.00;99.90;;;;;;5024959;28;20033;-70
2022/12/08 03:12:31;;;;;;;5.43;1.13;;;5.00;99.90;;;;;;5040323;28;20111;-70
2022/12/08 03:15:02;;;;;;;4.55;0.85;;;5.00;99.90;;;;;;5075527;28;20012;-70
2022/12/08 03:17:29;;;;;;;4.25;0.70;;;5.00;99.90;;;;;;5069755;28;20028;-70
2022/12/08 03:20:01;;;;;;;4.05;0.70;;;5.00;99.90;;;;;;5070444;28;20039;-70
2022/12/08 03:22:27;;;;;;;6.85;0.93;;;5.00;99.90;;;;;;5073188;28;20036;-70
2022/12/08 03:24:55;;;;;;;8.50;0.98;;;5.00;99.90;;;;;;5076250;28;20028;-70
2022/12/08 03:27:24;;;;;;;11.63;1.05;;;5.00;99.90;;;;;;5071605;28;20103;-69
2022/12/08 03:29:52;;;;;;;7.13;1.02;;;5.00;99.90;;;;;;5068226;28;20041;-70
2022/12/08 03:32:36;;;;;;;6.43;1.17;;;5.10;99.90;;;;;;5076219;28;20376;-69
2022/12/08 03:35:06;;;;;;;4.38;0.90;;;5.10;99.90;;;;;;5079243;28;20025;-71
2022/12/08 03:37:34;;;;;;;12.68;1.20;;;5.10;99.90;;;;;;5075732;28;20479;-69
2022/12/08 03:40:01;;;;;;;9.80;1.25;;;5.20;99.90;;;;;;5075583;28;20066;-69
2022/12/08 03:42:26;;;;;;;4.55;0.80;;;5.20;99.90;;;;;;5072922;28;20036;-69
2022/12/08 03:44:52;;;;;;;9.05;1.08;;;5.20;99.90;;;;;;5066525;28;20021;-69
2022/12/08 03:47:18;;;;;;;10.65;1.30;;;5.20;99.90;;;;;;5067488;28;20024;-69
2022/12/08 03:49:43;;;;;;;6.90;1.00;;;5.20;99.90;;;;;;5072806;28;20055;-69
2022/12/08 03:52:09;;;;;;;7.70;0.90;;;5.20;99.90;;;;;;5072661;28;20496;-69
2022/12/08 03:54:34;;;;;;;4.72;1.00;;;5.20;99.90;;;;;;5068000;28;20469;-69
2022/12/08 03:57:00;;;;;;;12.20;1.25;;;5.30;99.90;;;;;;5063758;28;20041;-69
2022/12/08 03:59:25;;;;;;;4.88;0.63;;;5.30;99.90;;;;;;5061684;28;20016;-69
2022/12/08 04:01:51;;;;;;;5.93;0.85;;;5.20;99.90;;;;;;5073632;28;20028;-69
2022/12/08 04:04:17;;;;;;;3.13;1.10;;;5.30;99.90;;;;;;5071461;28;20021;-69
2022/12/08 04:06:43;;;;;;;5.30;0.85;;;5.30;99.90;;;;;;5063071;28;20040;-69
2022/12/08 04:09:08;;;;;;;7.38;0.93;;;5.30;99.90;;;;;;5061397;28;20032;-69
2022/12/08 04:11:34;;;;;;;7.07;0.82;;;5.30;99.90;;;;;;5072215;28;20033;-70
2022/12/08 04:14:00;;;;;;;6.00;0.98;;;5.30;99.90;;;;;;5069857;28;20033;-69
2022/12/08 04:16:26;;;;;;;5.68;1.00;;;5.30;99.90;;;;;;5075605;28;20099;-69
2022/12/08 04:18:52;;;;;;;6.82;1.25;;;5.30;99.90;;;;;;5072483;28;20032;-69
2022/12/08 04:21:18;;;;;;;4.72;0.70;;;5.20;99.90;;;;;;5064602;28;20092;-69
2022/12/08 04:23:44;;;;;;;5.15;0.65;;;5.20;99.90;;;;;;5068380;28;20028;-69
2022/12/08 04:26:11;;;;;;;5.60;0.70;;;5.20;99.90;;;;;;5067830;28;20120;-70
2022/12/08 04:28:36;;;;;;;6.45;0.75;;;5.20;99.90;;;;;;5070542;28;20054;-69
2022/12/08 04:31:02;;;;;;;5.60;0.80;;;5.10;99.90;;;;;;5062480;28;20025;-69
2022/12/08 04:33:28;;;;;;;3.47;0.70;;;5.10;99.90;;;;;;5062602;28;20104;-69
2022/12/08 04:35:53;;;;;;;5.45;0.68;;;5.20;99.90;;;;;;5072722;28;20024;-69
2022/12/08 04:38:19;;;;;;;5.07;0.50;;;5.20;99.90;;;;;;5064274;28;20017;-69
2022/12/08 04:40:44;;;;;;;3.75;0.50;;;5.20;99.90;;;;;;5064323;28;20025;-69
2022/12/08 04:43:10;;;;;;;8.50;0.70;;;5.20;99.90;;;;;;5074403;28;20455;-69
2022/12/08 04:45:39;;;;;;;4.65;0.80;;;5.20;99.90;;;;;;5075065;28;20029;-69
2022/12/08 04:48:05;;;;;;;3.80;0.80;;;5.10;99.90;;;;;;5073507;28;20392;-69
2022/12/08 04:50:30;;;;;;;3.38;0.88;;;5.10;99.90;;;;;;5074233;28;20048;-70
2022/12/08 04:52:56;;;;;;;6.03;0.70;;;5.10;99.90;;;;;;5068871;28;20032;-69
2022/12/08 04:55:22;;;;;;;4.28;0.80;;;5.10;99.90;;;;;;5066603;28;20021;-69
2022/12/08 04:57:47;;;;;;;5.93;0.77;;;5.10;99.90;;;;;;5064577;28;20031;-69
2022/12/08 05:00:13;;;;;;;2.15;0.60;;;5.10;99.90;;;;;;5072913;28;20017;-69
2022/12/08 05:02:39;;;;;;;5.50;0.95;;;5.00;99.90;;;;;;5058226;28;20017;-69
2022/12/08 05:05:05;;;;;;;3.45;0.70;;;5.10;99.90;;;;;;5060428;28;20044;-69
2022/12/08 05:07:31;;;;;;;3.17;0.75;;;5.10;99.90;;;;;;5062441;28;20554;-69
2022/12/08 05:09:57;;;;;;;4.25;0.95;;;5.00;99.90;;;;;;5067809;28;20024;-69
2022/12/08 05:12:22;;;;;;;4.15;0.90;;;5.00;99.90;;;;;;5060638;28;20024;-69
2022/12/08 05:14:48;;;;;;;5.03;0.85;;;5.00;99.90;;;;;;5067970;28;20089;-68
2022/12/08 05:17:15;;;;;;;3.08;0.73;;;5.00;99.90;;;;;;5059567;28;20027;-69
2022/12/08 05:19:40;;;;;;;6.93;0.90;;;5.00;99.90;;;;;;5069508;28;20111;-68
2022/12/08 05:22:07;;;;;;;5.10;0.80;;;5.00;99.90;;;;;;5074507;28;20050;-68
2022/12/08 05:24:33;;;;;;;6.35;0.70;;;5.00;99.90;;;;;;5075902;28;20118;-68
2022/12/08 05:26:58;;;;;;;2.33;0.68;;;5.00;99.90;;;;;;5071267;28;20023;-70
2022/12/08 05:29:24;;;;;;;8.50;0.70;;;5.00;99.90;;;;;;5069425;28;20350;-70
2022/12/08 05:31:50;;;;;;;3.75;0.70;;;5.00;99.90;;;;;;5055213;28;20031;-70
2022/12/08 05:34:16;;;;;;;2.83;0.80;;;5.00;99.90;;;;;;5063547;28;20021;-69
2022/12/08 05:36:41;;;;;;;4.85;0.60;;;5.00;99.90;;;;;;5063904;28;20384;-69
2022/12/08 05:39:11;;;;;;;4.47;0.55;;;5.00;99.90;;;;;;5070601;28;20074;-69
2022/12/08 05:41:36;;;;;;;4.88;0.90;;;5.00;99.90;;;;;;5071462;28;20084;-70
2022/12/08 05:44:02;;;;;;;3.70;0.73;;;5.00;99.90;;;;;;5069560;28;20096;-69
2022/12/08 05:46:28;;;;;;;5.30;0.90;;;5.00;99.90;;;;;;5069853;28;20054;-69
2022/12/08 05:48:53;;;;;;;2.00;0.57;;;5.00;99.90;;;;;;5068708;28;20064;-69
2022/12/08 05:51:21;;;;;;;6.55;0.70;;;5.00;99.90;;;;;;5071609;28;20027;-69
2022/12/08 05:53:48;;;;;;;4.32;0.68;;;5.00;99.90;;;;;;5066746;28;20029;-69
2022/12/08 05:56:14;;;;;;;5.85;0.75;;;5.00;99.90;;;;;;5062041;28;20016;-69
2022/12/08 05:58:40;;;;;;;1.95;0.50;;;5.00;99.90;;;;;;5069749;28;20542;-71
2022/12/08 06:01:05;;;;;;;2.60;0.40;;;4.90;99.90;;;;;;5058774;28;20044;-70
2022/12/08 06:03:31;;;;;;;2.40;0.43;;;4.80;99.90;;;;;;5068699;28;20037;-70
2022/12/08 06:05:57;;;;;;;0.73;0.50;;;4.70;99.90;;;;;;5063351;28;20077;-69
2022/12/08 06:08:22;;;;;;;1.75;0.40;;;4.60;99.90;;;;;;5063116;28;20407;-70
2022/12/08 06:10:48;;;;;;;1.35;0.85;;;4.60;99.90;;;;;;5059859;28;20021;-70
2022/12/08 06:13:14;;;;;;;2.63;0.43;;;4.50;99.90;;;;;;5059823;28;20021;-71
2022/12/08 06:15:40;;;;;;;2.13;0.43;;;4.40;99.90;;;;;;5068608;28;20047;-69
2022/12/08 06:18:07;;;;;;;1.98;0.40;;;4.20;99.90;;;;;;5060975;28;20040;-70
2022/12/08 06:21:02;;;;;;;0.93;0.30;;;4.10;99.90;;;;;;5059422;28;20025;-70
2022/12/08 06:23:28;;;;;;;1.00;0.30;;;4.00;99.90;;;;;;5060310;28;20104;-69
2022/12/08 06:25:53;;;;;;;2.00;0.50;;;4.00;99.90;;;;;;5057996;28;20287;-71
2022/12/08 06:28:19;;;;;;;1.45;0.40;;;3.90;99.90;;;;;;5067334;28;20028;-69
2022/12/08 06:30:44;;;;;;;0.55;0.40;;;3.90;99.90;;;;;;5068341;28;20028;-70
2022/12/08 06:33:10;;;;;;;2.53;0.50;;;4.00;99.90;;;;;;5063930;28;20036;-69
2022/12/08 06:35:36;;;;;;;1.13;0.40;;;4.00;99.90;;;;;;5063036;28;20037;-69
2022/12/08 06:38:01;;;;;;;2.65;0.50;;;4.00;99.90;;;;;;5067247;28;20029;-70
2022/12/08 06:40:27;;;;;;;1.50;0.50;;;4.00;99.90;;;;;;5070849;28;20028;-68
2022/12/08 06:42:53;;;;;;;1.42;0.52;;;4.10;99.90;;;;;;5067064;28;20027;-70
2022/12/08 06:45:19;;;;;;;5.85;0.50;;;4.10;99.90;;;;;;5067328;28;20013;-69
2022/12/08 06:47:44;;;;;;;2.78;0.50;;;4.10;99.90;;;;;;5065361;28;20021;-69
2022/12/08 06:50:11;;;;;;;1.85;0.40;;;4.20;99.90;;;;;;5060641;28;20036;-70
2022/12/08 06:52:37;;;;;;;2.83;0.45;;;4.20;99.90;;;;;;5064935;28;20043;-69
2022/12/08 06:55:02;;;;;;;3.50;0.47;;;4.20;99.90;;;;;;5062460;28;20465;-69
2022/12/08 06:57:28;;;;;;;2.63;0.60;;;4.20;99.90;;;;;;5061782;28;20033;-70
2022/12/08 06:59:54;;;;;;;6.63;0.90;;;4.20;99.90;;;;;;5066139;28;20025;-69
2022/12/08 07:02:19;;;;;;;4.18;0.80;;;4.20;99.90;;;;;;5062598;28;20122;-70
2022/12/08 07:04:45;;;;;;;3.42;0.70;;;4.20;99.90;;;;;;5066864;28;20027;-71
2022/12/08 07:07:10;;;;;;;6.82;0.90;;;4.20;99.90;;;;;;5062406;28;20059;-70
2022/12/08 07:09:36;;;;;;;2.05;0.80;;;4.20;99.90;;;;;;5061372;28;20020;-70
2022/12/08 07:12:03;;;;;;;4.93;1.13;;;4.20;99.90;;;;;;5059790;28;20021;-70
2022/12/08 07:14:29;;;;;;;2.92;0.90;;;4.10;99.90;;;;;;5071719;28;20028;-70
2022/12/08 07:16:54;;;;;;;3.28;1.05;;;4.20;99.90;;;;;;5062637;28;20456;-71
2022/12/08 07:19:20;;;;;;;2.50;1.10;;;4.20;99.90;;;;;;5070826;28;20412;-70
2022/12/08 07:21:46;;;;;;;3.85;1.00;;;4.20;99.90;;;;;;5060280;28;20541;-71
2022/12/08 07:24:12;;;;;;;4.15;1.10;;;4.20;99.90;;;;;;5061900;28;20070;-69
2022/12/08 07:26:38;;;;;;;6.00;1.25;;;4.20;99.90;;;;;;5060884;28;20021;-70
2022/12/08 07:29:04;;;;;;;2.08;0.90;;;4.20;99.90;;;;;;5061762;28;20129;-71
2022/12/08 07:31:30;;;;;;;4.00;1.02;;;4.30;99.90;;;;;;5070958;28;20048;-70
2022/12/08 07:33:56;;;;;;;3.33;1.00;;;4.20;99.90;;;;;;5074363;28;20074;-71
2022/12/08 07:36:22;;;;;;;2.47;0.90;;;4.20;99.90;;;;;;5058602;28;20021;-69
2022/12/08 07:38:54;;;;;;;4.35;1.13;;;4.20;99.90;;;;;;5071594;28;20590;-69
2022/12/08 07:41:22;;;;;;;4.00;1.15;;;4.20;99.90;;;;;;5072453;28;20462;-68
2022/12/08 07:43:48;;;;;;;1.55;0.85;;;4.20;99.90;;;;;;5069530;28;20021;-69
2022/12/08 07:46:16;;;;;;;9.63;1.17;;;4.20;99.90;;;;;;5062414;28;20021;-69
2022/12/08 07:48:42;;;;;;;1.98;0.80;;;4.20;99.90;;;;;;5066727;28;20051;-71
2022/12/08 07:51:10;;;;;;;3.00;0.90;;;4.20;99.90;;;;;;5065127;28;20032;-69
2022/12/08 07:53:38;;;;;;;4.05;0.80;;;4.20;99.90;;;;;;5058396;28;20560;-70
2022/12/08 07:56:06;;;;;;;6.63;0.93;;;4.20;99.90;;;;;;5064622;28;20099;-69
2022/12/08 07:58:31;;;;;;;3.42;0.93;;;4.20;99.90;;;;;;5058525;28;20361;-69
2022/12/08 08:00:57;;;;;;;6.15;1.33;;;4.20;99.90;;;;;;5057060;28;20074;-69
2022/12/08 08:03:22;;;;;;;3.53;0.82;;;4.20;99.90;;;;;;5062466;28;20455;-70
2022/12/08 08:05:48;;;;;;;6.28;0.70;;;4.20;99.90;;;;;;5060801;28;20078;-69
2022/12/08 08:08:15;;;;;;;2.60;0.80;;;4.20;99.90;;;;;;5067335;28;20373;-69
2022/12/08 08:10:40;;;;;;;2.75;0.85;;;4.20;99.90;;;;;;5064538;28;20399;-70
2022/12/08 08:13:07;;;;;;;6.45;0.82;;;4.20;99.90;;;;;;5063530;28;20054;-70
2022/12/08 08:15:33;;;;;;;8.45;0.88;;;4.20;99.90;;;;;;5063145;28;20024;-70
2022/12/08 08:17:58;;;;;;;2.92;0.85;;;4.10;99.90;;;;;;5058627;28;20021;-69
2022/12/08 08:20:24;;;;;;;2.35;1.00;;;4.20;99.90;;;;;;5068689;28;20086;-71
2022/12/08 08:22:50;;;;;;;5.10;1.20;;;4.20;99.90;;;;;;5068605;28;20028;-70
2022/12/08 08:25:18;;;;;;;3.85;1.40;;;4.20;99.90;;;;;;5056251;28;20025;-71
2022/12/08 08:27:44;;;;;;;3.22;1.58;;;4.10;99.90;;;;;;5059823;28;20209;-70
2022/12/08 08:30:11;;;;;;;8.45;1.52;;;4.10;99.90;;;;;;5064507;28;20400;-71
2022/12/08 08:32:37;;;;;;;3.28;1.85;;;4.10;99.90;;;;;;5070700;28;20024;-70
2022/12/08 08:35:03;;;;;;;5.00;2.00;;;4.10;99.90;;;;;;5069465;28;20390;-68
2022/12/08 08:37:29;;;;;;;3.95;1.60;;;4.10;99.90;;;;;;5070872;28;20531;-70
2022/12/08 08:39:55;;;;;;;3.22;1.30;;;4.10;99.90;;;;;;5070190;28;20143;-68
2022/12/08 08:42:21;;;;;;;5.65;1.60;;;4.10;99.90;;;;;;5070520;28;20097;-69
2022/12/08 08:44:46;;;;;;;8.93;2.28;;;4.20;99.90;;;;;;5075466;28;20025;-69
2022/12/08 08:47:12;;;;;;;4.50;1.70;;;4.20;99.90;;;;;;5061291;28;20032;-68
2022/12/08 08:49:38;;;;;;;2.20;1.50;;;4.20;99.90;;;;;;5073820;28;20036;-72
2022/12/08 08:52:04;;;;;;;3.70;1.40;;;4.20;99.90;;;;;;5062223;28;20103;-70
2022/12/08 08:54:30;;;;;;;2.83;1.42;;;4.20;99.90;;;;;;5057814;28;20056;-70
2022/12/08 08:57:00;;;;;;;6.97;1.50;;;4.20;99.90;;;;;;5074482;28;20143;-70
2022/12/08 08:59:27;;;;;;;7.03;1.35;;;4.10;99.90;;;;;;5058196;28;20057;-70
2022/12/08 09:01:53;;;;;;;3.78;1.10;;;4.10;99.90;;;;;;5069344;28;20043;-70
2022/12/08 09:04:20;;;;;;;7.63;1.65;;;4.10;99.90;;;;;;5074083;28;20447;-70
2022/12/08 09:06:46;;;;;;;4.88;1.40;;;4.10;99.90;;;;;;5059614;28;20090;-70
2022/12/08 09:09:13;;;;;;;4.28;1.60;;;4.10;99.90;;;;;;5065816;28;20028;-70
2022/12/08 09:11:39;;;;;;;2.50;1.50;;;4.10;99.90;;;;;;5070455;28;20017;-70
2022/12/08 09:14:05;;;;;;;2.35;1.10;;;4.00;99.90;;;;;;5068225;28;20370;-70
2022/12/08 09:16:30;;;;;;;1.73;0.68;;;4.00;99.90;;;;;;5072946;28;20020;-69
2022/12/08 09:18:56;;;;;;;2.15;0.60;;;3.90;99.90;;;;;;5072843;28;20037;-72
2022/12/08 09:21:24;;;;;;;2.70;0.80;;;3.90;99.90;;;;;;5071618;28;20396;-70
2022/12/08 09:23:53;;;;;;;0.95;0.80;;;3.90;99.90;;;;;;5074196;28;20047;-70
2022/12/08 09:26:21;;;;;;;4.88;0.90;;;3.90;99.90;;;;;;5074098;28;20075;-70
2022/12/08 09:28:48;;;;;;;2.65;0.80;;;4.00;99.90;;;;;;5073278;28;20501;-70
2022/12/08 09:31:15;;;;;;;2.28;0.73;;;3.90;99.90;;;;;;5071865;28;20390;-69
2022/12/08 09:33:41;;;;;;;3.90;0.77;;;4.00;99.90;;;;;;5071131;28;20060;-70
2022/12/08 09:36:07;;;;;;;0.75;0.50;;;4.00;99.90;;;;;;5071845;28;20027;-70
2022/12/08 09:38:33;;;;;;;3.08;0.52;;;4.00;99.90;;;;;;5070090;28;20111;-70
2022/12/08 09:41:02;;;;;;;4.28;0.60;;;4.00;99.90;;;;;;5069003;28;20100;-70
2022/12/08 09:43:42;;;;;;;1.73;0.52;;;4.00;99.90;;;;;;5062640;28;20100;-70
2022/12/08 09:46:10;;;;;;;2.30;0.73;;;4.00;99.90;;;;;;5062495;28;20024;-69
2022/12/08 09:48:43;;;;;;;1.75;0.68;;;4.00;99.90;;;;;;5068229;28;20052;-69
2022/12/08 09:51:10;;;;;;;3.85;0.82;;;4.00;99.90;;;;;;5071085;28;20032;-70
2022/12/08 09:53:42;;;;;;;4.55;0.90;;;4.00;99.90;;;;;;5067512;28;20031;-69
2022/12/08 09:56:16;;;;;;;2.83;0.80;;;4.00;99.90;;;;;;5063563;28;20025;-69
2022/12/08 09:58:58;;;;;;;2.28;0.50;;;4.00;99.90;;;;;;5056422;28;20032;-69
2022/12/08 10:01:33;;;;;;;3.75;0.80;;;3.90;99.90;;;;;;5064328;28;20389;-69
2022/12/08 10:03:59;;;;;;;;;;;3.90;99.90;;;;;;5061920;28;20496;-69
2022/12/08 10:06:32;;;;;;;1.67;0.70;;;3.90;99.90;;;;;;5060476;28;20168;-69
2022/12/08 10:09:21;;;;;;;2.08;0.70;;;3.90;99.90;;;;;;5068641;28;20037;-71
2022/12/08 10:11:57;;;;;;;2.45;0.85;;;3.90;99.90;;;;;;5072217;28;20020;-70
2022/12/08 10:14:46;;;;;;;1.48;0.57;;;3.80;99.90;;;;;;5067365;28;20103;-70
2022/12/08 10:17:29;;;;;;;2.33;0.80;;;3.80;99.90;;;;;;5065396;28;20029;-71
2022/12/08 10:20:00;;;;;;;1.48;0.70;;;3.80;99.90;;;;;;5071899;28;20082;-70
2022/12/08 10:22:32;;;;;;;1.80;1.05;;;3.80;99.90;;;;;;5073927;28;20024;-70
2022/12/08 10:24:59;;;;;;;2.80;1.00;;;3.80;99.90;;;;;;5070970;28;20041;-71
2022/12/08 10:27:25;;;;;;;2.95;0.98;;;3.80;99.90;;;;;;5063837;28;20447;-70
2022/12/08 10:29:51;;;;;;;4.03;1.17;;;3.70;99.90;;;;;;5066601;28;20087;-70
2022/12/08 10:32:20;;;;;;;2.58;1.10;;;3.70;99.90;;;;;;5072385;28;20025;-70
2022/12/08 10:35:11;;;;;;;3.63;1.10;;;3.80;99.90;;;;;;5073745;28;20029;-70
2022/12/08 10:37:37;;;;;;;3.30;1.00;;;3.80;99.90;;;;;;5075849;28;20126;-70
2022/12/08 10:40:16;;;;;;;2.53;1.15;;;3.80;99.90;;;;;;5073578;28;20024;-71
2022/12/08 10:42:46;;;;;;;4.05;1.20;;;3.90;99.90;;;;;;5071958;28;20445;-72
2022/12/08 10:45:19;;;;;;;3.47;1.30;;;3.90;99.90;;;;;;5073038;28;20056;-71
2022/12/08 10:47:58;;;;;;;4.25;1.17;;;3.90;99.90;;;;;;5071360;28;20027;-70
2022/12/08 10:50:31;;;;;;;3.33;1.20;;;3.90;99.90;;;;;;5070200;28;20040;-70
2022/12/08 10:53:42;;;;;;;2.40;1.00;;;3.90;99.90;;;;;;5075979;28;20044;-71
2022/12/08 10:56:14;;;;;;;3.00;1.25;;;3.90;99.90;;;;;;5070814;28;20115;-71
2022/12/08 10:58:46;;;;;;;3.90;1.23;;;4.00;99.90;;;;;;5056450;28;20084;-71
2022/12/08 11:01:13;;;;;;;4.95;1.17;;;4.00;99.90;;;;;;5062021;28;20366;-71
2022/12/08 11:03:42;;;;;;;4.20;1.13;;;4.00;99.90;;;;;;5064651;28;20030;-72
2022/12/08 11:06:20;;;;;;;2.78;0.90;;;4.00;99.90;;;;;;5074229;28;20036;-70
2022/12/08 11:08:54;;;;;;;3.20;0.63;;;4.00;99.90;;;;;;5073692;28;20035;-71
2022/12/08 11:11:56;;;;;;;1.65;0.52;;;4.00;99.90;;;;;;5073772;28;20040;-69
2022/12/08 11:14:23;;;;;;;1.20;0.50;;;4.00;99.90;;;;;;5030538;28;20033;-70
2022/12/08 11:16:52;;;;;;;2.20;0.50;;;4.00;99.90;;;;;;5020236;28;20030;-69
2022/12/08 11:19:19;;;;;;;1.17;0.60;;;4.10;99.90;;;;;;5027976;28;21283;-69
2022/12/08 11:21:45;;;;;;;2.08;0.70;;;4.10;99.90;;;;;;5031527;28;20425;-69
2022/12/08 11:24:24;;;;;;;1.38;0.60;;;4.10;99.90;;;;;;5031737;28;20216;-70
2022/12/08 11:26:54;;;;;;;1.98;0.60;;;4.20;99.90;;;;;;5031219;28;20018;-70
2022/12/08 11:29:20;;;;;;;1.45;0.77;;;4.20;99.90;;;;;;5031176;28;20030;-69
2022/12/08 11:32:02;;;;;;;2.95;0.82;;;4.20;99.90;;;;;;5028219;28;20106;-70
2022/12/08 11:34:36;;;;;;;2.05;0.93;;;4.20;99.90;;;;;;5013022;28;20572;-70
2022/12/08 11:37:07;;;;;;;3.65;0.77;;;4.20;99.90;;;;;;5027010;28;20084;-71
2022/12/08 11:39:34;;;;;;;2.53;0.80;;;4.20;99.90;;;;;;5033495;28;20040;-70
2022/12/08 11:42:03;;;;;;;2.80;1.00;;;4.20;99.90;;;;;;5036735;28;20457;-70
2022/12/08 11:44:37;;;;;;;4.65;0.80;;;4.20;99.90;;;;;;5036306;28;20026;-70
2022/12/08 11:47:21;;;;;;;3.45;0.80;;;4.20;99.90;;;;;;5046025;28;20049;-71
2022/12/08 11:49:50;;;;;;;3.67;0.90;;;4.10;99.90;;;;;;5067287;28;20140;-71
2022/12/08 11:52:27;;;;;;;1.58;0.60;;;4.00;99.90;;;;;;5078619;28;20063;-71
2022/12/08 11:55:22;;;;;;;2.25;0.68;;;3.90;99.90;;;;;;5067821;28;20056;-71
2022/12/08 11:57:49;;;;;;;4.53;0.82;;;3.80;99.90;;;;;;5074695;28;20033;-72
2022/12/08 12:00:16;;;;;;;4.78;0.90;;;3.70;99.90;;;;;;5074536;28;20392;-71
2022/12/08 12:02:53;;;;;;;4.15;0.80;;;3.70;99.90;;;;;;5064351;28;20029;-72
2022/12/08 12:05:32;;;;;;;2.65;0.60;;;3.70;99.90;;;;;;5074067;28;20071;-71
2022/12/08 12:08:33;;;;;;;1.27;0.60;;;3.70;99.90;;;;;;5074733;28;20035;-70
2022/12/08 12:11:10;;;;;;;1.77;0.60;;;3.70;99.90;;;;;;5065379;28;20036;-70
2022/12/08 12:13:58;;;;;;;1.42;0.50;;;3.60;99.90;;;;;;5068009;28;20032;-70
2022/12/08 12:16:53;;;;;;;4.15;0.60;;;3.60;99.90;;;;;;5070450;28;20035;-69
2022/12/08 12:19:21;;;;;;;2.47;0.63;;;3.60;99.90;;;;;;5062338;28;20032;-69
2022/12/08 12:21:54;;;;;;;1.60;0.70;;;3.50;99.90;;;;;;5057435;28;20028;-69
2022/12/08 12:24:25;;;;;;;2.88;0.90;;;3.50;99.90;;;;;;5073475;28;20457;-71
2022/12/08 12:26:59;;;;;;;1.77;0.93;;;3.50;99.90;;;;;;5072919;28;20021;-69
2022/12/08 12:29:35;;;;;;;1.83;0.90;;;3.60;99.90;;;;;;5070081;28;20060;-70
2022/12/08 12:32:08;;;;;;;1.92;1.10;;;3.60;99.90;;;;;;5058222;28;20024;-70
2022/12/08 12:34:37;;;;;;;2.70;1.00;;;3.60;99.90;;;;;;5069997;28;20025;-70
2022/12/08 12:37:11;;;;;;;1.85;1.10;;;3.60;99.90;;;;;;5071146;28;20210;-70
2022/12/08 12:39:51;;;;;;;6.55;1.52;;;3.60;99.90;;;;;;5073480;28;20036;-69
2022/12/08 12:42:55;;;;;;;4.05;1.40;;;3.70;99.90;;;;;;5061420;28;20039;-70
2022/12/08 12:45:21;;;;;;;3.15;1.90;;;3.70;99.90;;;;;;5023231;28;20096;-70
2022/12/08 12:48:18;;;;;;;3.30;2.00;;;3.80;99.90;;;;;;5028536;28;20548;-70
2022/12/08 12:50:46;;;;;;;5.03;2.10;;;3.90;99.90;;;;;;5019836;28;20092;-70
2022/12/08 12:53:14;;;;;;;2.60;1.88;;;4.00;99.90;;;;;;5027073;28;20038;-70
2022/12/08 12:55:59;;;;;;;4.35;2.15;;;4.10;99.90;;;;;;5028903;28;20120;-70
2022/12/08 12:58:28;;;;;;;5.80;2.53;;;4.20;99.90;;;;;;5027507;28;20427;-70
2022/12/08 13:01:11;;;;;;;5.20;2.45;;;4.30;99.90;;;;;;5029170;28;20032;-70
2022/12/08 13:03:49;;;;;;;7.70;2.55;;;4.40;99.90;;;;;;5013626;28;20512;-71
2022/12/08 13:06:22;;;;;;;6.97;2.40;;;4.50;99.90;;;;;;5029992;28;20026;-70
2022/12/08 13:08:53;;;;;;;6.18;2.40;;;4.50;99.90;;;;;;5021624;28;20072;-71
2022/12/08 13:11:20;;;;;;;6.18;2.70;;;4.50;99.90;;;;;;5030448;28;20033;-70
2022/12/08 13:13:55;;;;;;;4.88;2.25;;;4.50;99.90;;;;;;5028475;28;20137;-70
2022/12/08 13:16:24;;;;;;;3.75;2.42;;;4.50;99.90;;;;;;5029906;28;20088;-70